sensor_id;sensor_type;location;lat;lon;timestamp;P1;durP1;ratioP1;P2;durP2;ratioP2
49820;SDS011;36893;52.520;13.450;2023-12-07T00:00:22;4.90;;;2.47;;
49820;SDS011;36893;52.520;13.450;2023-12-07T00:10:22;7.83;;;2.47;;
49820;SDS011;36893;52.520;13.450;2023-12-07T00:20:23;5.30;;;2.03;;
49820;SDS011;36893;52.520;13.450;2023-12-07T00:30:23;6.20;;;1.93;;
49820;SDS011;36893;52.520;13.450;2023-12-07T00:40:24;3.67;;;2.10;;
49820;SDS011;36893;52.520;13.450;2023-12-07T00:50:25;5.20;;;2.27;;
49820;SDS011;36893;52.520;13.450;2023-12-07T01:00:25;6.10;;;1.95;;
49820;SDS011;36893;52.520;13.450;2023-12-07T01:10:26;5.30;;;2.03;;
49820;SDS011;36893;52.520;13.450;2023-12-07T01:20:27;5.47;;;2.10;;
49820;SDS011;36893;52.520;13.450;2023-12-07T01:30:27;4.50;;;2.00;;
49820;SDS011;36893;52.520;13.450;2023-12-07T01:40:28;3.50;;;2.00;;
49820;SDS011;36893;52.520;13.450;2023-12-07T01:50:29;3.73;;;1.70;;
49820;SDS011;36893;52.520;13.450;2023-12-07T02:00:30;5.90;;;2.35;;
49820;SDS011;36893;52.520;13.450;2023-12-07T02:10:30;4.38;;;1.80;;
49820;SDS011;36893;52.520;13.450;2023-12-07T02:20:34;3.80;;;1.60;;
49820;SDS011;36893;52.520;13.450;2023-12-07T02:30:47;4.05;;;2.03;;
49820;SDS011;36893;52.520;13.450;2023-12-07T02:40:48;3.80;;;1.60;;
49820;SDS011;36893;52.520;13.450;2023-12-07T02:50:49;3.35;;;2.00;;
49820;SDS011;36893;52.520;13.450;2023-12-07T03:00:50;4.17;;;1.63;;
49820;SDS011;36893;52.520;13.450;2023-12-07T03:10:51;5.28;;;2.05;;
49820;SDS011;36893;52.520;13.450;2023-12-07T03:20:52;5.10;;;2.10;;
49820;SDS011;36893;52.520;13.450;2023-12-07T03:30:52;3.57;;;1.63;;
49820;SDS011;36893;52.520;13.450;2023-12-07T03:40:53;3.73;;;1.63;;
49820;SDS011;36893;52.520;13.450;2023-12-07T03:50:55;4.55;;;1.55;;
49820;SDS011;36893;52.520;13.450;2023-12-07T04:00:55;2.93;;;1.40;;
49820;SDS011;36893;52.520;13.450;2023-12-07T04:10:56;3.83;;;1.43;;
49820;SDS011;36893;52.520;13.450;2023-12-07T04:20:56;5.03;;;1.60;;
49820;SDS011;36893;52.520;13.450;2023-12-07T04:30:57;3.97;;;1.70;;
49820;SDS011;36893;52.520;13.450;2023-12-07T04:40:58;2.70;;;1.40;;
49820;SDS011;36893;52.520;13.450;2023-12-07T04:50:59;2.80;;;1.20;;
49820;SDS011;36893;52.520;13.450;2023-12-07T05:00:59;3.87;;;1.43;;
49820;SDS011;36893;52.520;13.450;2023-12-07T05:11:00;4.20;;;1.60;;
49820;SDS011;36893;52.520;13.450;2023-12-07T05:21:00;2.70;;;1.30;;
49820;SDS011;36893;52.520;13.450;2023-12-07T05:31:01;3.33;;;1.67;;
49820;SDS011;36893;52.520;13.450;2023-12-07T05:41:02;2.13;;;1.20;;
49820;SDS011;36893;52.520;13.450;2023-12-07T05:51:03;2.40;;;1.00;;
49820;SDS011;36893;52.520;13.450;2023-12-07T06:01:04;2.33;;;1.23;;
49820;SDS011;36893;52.520;13.450;2023-12-07T06:11:05;3.08;;;1.40;;
49820;SDS011;36893;52.520;13.450;2023-12-07T06:21:06;3.80;;;1.50;;
49820;SDS011;36893;52.520;13.450;2023-12-07T06:31:06;2.53;;;1.40;;
49820;SDS011;36893;52.520;13.450;2023-12-07T06:41:08;2.35;;;1.17;;
49820;SDS011;36893;52.520;13.450;2023-12-07T06:51:08;2.40;;;1.30;;
49820;SDS011;36893;52.520;13.450;2023-12-07T07:01:09;2.97;;;1.37;;
49820;SDS011;36893;52.520;13.450;2023-12-07T07:11:12;3.17;;;1.53;;
49820;SDS011;36893;52.520;13.450;2023-12-07T07:21:15;3.80;;;1.50;;
49820;SDS011;36893;52.520;13.450;2023-12-07T07:31:16;1.57;;;1.10;;
49820;SDS011;36893;52.520;13.450;2023-12-07T07:41:17;1.77;;;1.00;;
49820;SDS011;36893;52.520;13.450;2023-12-07T07:51:18;3.60;;;1.00;;
49820;SDS011;36893;52.520;13.450;2023-12-07T08:01:19;2.87;;;1.13;;
49820;SDS011;36893;52.520;13.450;2023-12-07T08:11:19;2.72;;;1.35;;
49820;SDS011;36893;52.520;13.450;2023-12-07T08:21:20;3.13;;;1.17;;
49820;SDS011;36893;52.520;13.450;2023-12-07T08:31:22;1.98;;;1.00;;
49820;SDS011;36893;52.520;13.450;2023-12-07T08:41:24;2.58;;;1.23;;
49820;SDS011;36893;52.520;13.450;2023-12-07T08:51:24;3.13;;;1.60;;
49820;SDS011;36893;52.520;13.450;2023-12-07T09:01:25;1.20;;;0.80;;
49820;SDS011;36893;52.520;13.450;2023-12-07T09:11:27;2.33;;;1.33;;
49820;SDS011;36893;52.520;13.450;2023-12-07T09:21:28;3.28;;;1.30;;
49820;SDS011;36893;52.520;13.450;2023-12-07T09:31:28;3.83;;;1.70;;
49820;SDS011;36893;52.520;13.450;2023-12-07T09:41:29;3.73;;;1.60;;
49820;SDS011;36893;52.520;13.450;2023-12-07T09:51:29;2.90;;;1.70;;
49820;SDS011;36893;52.520;13.450;2023-12-07T10:01:33;3.15;;;1.60;;
49820;SDS011;36893;52.520;13.450;2023-12-07T10:11:39;3.08;;;1.42;;
49820;SDS011;36893;52.520;13.450;2023-12-07T10:21:40;2.75;;;1.35;;
49820;SDS011;36893;52.520;13.450;2023-12-07T10:31:41;4.13;;;1.50;;
49820;SDS011;36893;52.520;13.450;2023-12-07T10:41:43;4.63;;;1.77;;
49820;SDS011;36893;52.520;13.450;2023-12-07T10:51:51;2.83;;;1.30;;
49820;SDS011;36893;52.520;13.450;2023-12-07T11:02:01;2.47;;;1.42;;
49820;SDS011;36893;52.520;13.450;2023-12-07T11:12:05;3.67;;;1.70;;
49820;SDS011;36893;52.520;13.450;2023-12-07T11:22:59;5.03;;;1.92;;
49820;SDS011;36893;52.520;13.450;2023-12-07T11:33:00;4.22;;;1.50;;
49820;SDS011;36893;52.520;13.450;2023-12-07T11:43:03;2.78;;;1.50;;
49820;SDS011;36893;52.520;13.450;2023-12-07T11:53:05;3.33;;;1.40;;
49820;SDS011;36893;52.520;13.450;2023-12-07T12:03:10;4.15;;;1.63;;
49820;SDS011;36893;52.520;13.450;2023-12-07T12:13:14;3.70;;;1.50;;
49820;SDS011;36893;52.520;13.450;2023-12-07T12:23:15;3.35;;;1.80;;
49820;SDS011;36893;52.520;13.450;2023-12-07T12:33:16;2.80;;;1.50;;
49820;SDS011;36893;52.520;13.450;2023-12-07T12:43:17;3.72;;;1.27;;
49820;SDS011;36893;52.520;13.450;2023-12-07T12:53:17;3.73;;;1.60;;
49820;SDS011;36893;52.520;13.450;2023-12-07T13:03:18;3.83;;;1.40;;
49820;SDS011;36893;52.520;13.450;2023-12-07T13:13:19;3.53;;;1.70;;
49820;SDS011;36893;52.520;13.450;2023-12-07T13:23:20;3.35;;;1.55;;
49820;SDS011;36893;52.520;13.450;2023-12-07T13:33:21;4.53;;;1.83;;
49820;SDS011;36893;52.520;13.450;2023-12-07T13:43:23;4.60;;;1.83;;
49820;SDS011;36893;52.520;13.450;2023-12-07T13:53:24;3.70;;;1.92;;
49820;SDS011;36893;52.520;13.450;2023-12-07T14:03:24;3.00;;;1.60;;
49820;SDS011;36893;52.520;13.450;2023-12-07T14:13:25;2.93;;;1.70;;
49820;SDS011;36893;52.520;13.450;2023-12-07T14:23:28;4.60;;;1.85;;
49820;SDS011;36893;52.520;13.450;2023-12-07T14:33:29;4.90;;;1.50;;
49820;SDS011;36893;52.520;13.450;2023-12-07T14:43:29;4.88;;;2.25;;
49820;SDS011;36893;52.520;13.450;2023-12-07T14:53:30;4.07;;;1.40;;
49820;SDS011;36893;52.520;13.450;2023-12-07T15:03:31;3.72;;;1.80;;
49820;SDS011;36893;52.520;13.450;2023-12-07T15:13:32;3.22;;;1.77;;
49820;SDS011;36893;52.520;13.450;2023-12-07T15:23:33;2.93;;;1.50;;
49820;SDS011;36893;52.520;13.450;2023-12-07T15:33:34;3.83;;;1.88;;
49820;SDS011;36893;52.520;13.450;2023-12-07T15:43:35;3.05;;;1.60;;
49820;SDS011;36893;52.520;13.450;2023-12-07T15:53:35;4.05;;;1.80;;
49820;SDS011;36893;52.520;13.450;2023-12-07T16:03:38;3.40;;;1.80;;
49820;SDS011;36893;52.520;13.450;2023-12-07T16:13:38;3.17;;;1.40;;
49820;SDS011;36893;52.520;13.450;2023-12-07T16:23:39;3.30;;;1.70;;
49820;SDS011;36893;52.520;13.450;2023-12-07T16:33:40;4.87;;;1.87;;
49820;SDS011;36893;52.520;13.450;2023-12-07T16:43:41;2.92;;;1.67;;
49820;SDS011;36893;52.520;13.450;2023-12-07T16:53:42;3.70;;;1.75;;
49820;SDS011;36893;52.520;13.450;2023-12-07T17:03:43;5.53;;;1.70;;
49820;SDS011;36893;52.520;13.450;2023-12-07T17:13:44;4.25;;;1.92;;
49820;SDS011;36893;52.520;13.450;2023-12-07T17:23:45;3.30;;;1.80;;
49820;SDS011;36893;52.520;13.450;2023-12-07T17:33:45;3.50;;;2.00;;
49820;SDS011;36893;52.520;13.450;2023-12-07T17:43:46;4.17;;;1.67;;
49820;SDS011;36893;52.520;13.450;2023-12-07T17:53:47;4.47;;;1.93;;
49820;SDS011;36893;52.520;13.450;2023-12-07T18:03:47;2.43;;;1.30;;
49820;SDS011;36893;52.520;13.450;2023-12-07T18:13:48;4.17;;;1.60;;
49820;SDS011;36893;52.520;13.450;2023-12-07T18:23:49;5.22;;;2.03;;
49820;SDS011;36893;52.520;13.450;2023-12-07T18:33:50;5.10;;;2.03;;
49820;SDS011;36893;52.520;13.450;2023-12-07T18:43:50;4.43;;;1.93;;
49820;SDS011;36893;52.520;13.450;2023-12-07T18:53:51;3.22;;;1.63;;
49820;SDS011;36893;52.520;13.450;2023-12-07T19:03:52;4.60;;;1.90;;
49820;SDS011;36893;52.520;13.450;2023-12-07T19:13:53;5.47;;;2.20;;
49820;SDS011;36893;52.520;13.450;2023-12-07T19:23:55;5.35;;;2.03;;
49820;SDS011;36893;52.520;13.450;2023-12-07T19:33:55;6.97;;;2.37;;
49820;SDS011;36893;52.520;13.450;2023-12-07T19:43:56;5.90;;;2.50;;
49820;SDS011;36893;52.520;13.450;2023-12-07T19:53:58;4.27;;;2.17;;
49820;SDS011;36893;52.520;13.450;2023-12-07T20:04:00;6.93;;;3.00;;
49820;SDS011;36893;52.520;13.450;2023-12-07T20:14:02;5.85;;;2.70;;
49820;SDS011;36893;52.520;13.450;2023-12-07T20:24:03;5.82;;;2.45;;
49820;SDS011;36893;52.520;13.450;2023-12-07T20:34:04;8.75;;;2.78;;
49820;SDS011;36893;52.520;13.450;2023-12-07T20:44:05;6.07;;;2.37;;
49820;SDS011;36893;52.520;13.450;2023-12-07T20:54:08;6.00;;;2.63;;
49820;SDS011;36893;52.520;13.450;2023-12-07T21:04:08;5.60;;;2.53;;
49820;SDS011;36893;52.520;13.450;2023-12-07T21:14:09;7.30;;;2.87;;
49820;SDS011;36893;52.520;13.450;2023-12-07T21:24:10;5.25;;;2.28;;
49820;SDS011;36893;52.520;13.450;2023-12-07T21:34:11;4.73;;;2.03;;
49820;SDS011;36893;52.520;13.450;2023-12-07T21:44:12;6.30;;;2.55;;
49820;SDS011;36893;52.520;13.450;2023-12-07T21:54:13;5.45;;;2.50;;
49820;SDS011;36893;52.520;13.450;2023-12-07T22:04:14;7.20;;;2.67;;
49820;SDS011;36893;52.520;13.450;2023-12-07T22:14:14;5.50;;;2.30;;
49820;SDS011;36893;52.520;13.450;2023-12-07T22:24:16;5.43;;;2.25;;
49820;SDS011;36893;52.520;13.450;2023-12-07T22:34:17;6.20;;;2.07;;
49820;SDS011;36893;52.520;13.450;2023-12-07T22:44:17;7.40;;;2.70;;
49820;SDS011;36893;52.520;13.450;2023-12-07T22:54:18;7.50;;;2.63;;
49820;SDS011;36893;52.520;13.450;2023-12-07T23:04:19;4.60;;;2.27;;
49820;SDS011;36893;52.520;13.450;2023-12-07T23:14:19;7.27;;;3.00;;
49820;SDS011;36893;52.520;13.450;2023-12-07T23:24:20;5.87;;;2.43;;
49820;SDS011;36893;52.520;13.450;2023-12-07T23:34:20;5.17;;;2.00;;
49820;SDS011;36893;52.520;13.450;2023-12-07T23:44:21;5.03;;;2.17;;
49820;SDS011;36893;52.520;13.450;2023-12-07T23:54:22;4.50;;;2.20;;
